Latest Coastal Weather Observations for King Island Airport

IDT60701

Issued at 4:22 am EST Friday 29 July 2016 (issued every 10 minutes, with the page automatically refreshed every 10 minutes)

About coastal observations | Map of coastal stations | Coastal observations for TAS | Marine services | Other Formats
Station Details ID: 098017 Name: KING ISLAND AIRPORT Lat: -39.88 Lon: 143.88 Height: 37.0 m
Data from the previous 72 hours. | See also: Recent months at King Island Airport
Date/Time
EST
Temp
°C
Wind Pressure Rain since
9am
mm
Weather Cloud Vis
km
Sea
Height
m
Swell
Dir  Spd
kts
Gust
kts
hPa Trend Height
m
Period
s
Dir
29/04:18am 12.0 W 18 28 1016.0 - 1.2 - Partly cloudy 10 - - - -
29/04:00am 12.3 W 19 26 1015.9 - 1.2 - Partly cloudy 10 - - - -
29/03:41am 11.9 W 17 27 1016.1 - 1.2 - Partly cloudy 10 - - - -
29/03:30am 11.9 W 19 27 1016.2 - 1.2 - Partly cloudy 10 - - - -
29/03:06am 11.9 W 20 30 1016.4 - 1.2 - Partly cloudy 10 - - - -
29/03:00am 11.8 W 20 29 1016.4 - 1.2 - Cloudy 10 - - - -
29/02:30am 11.8 W 19 29 1016.6 - 1.2 - Partly cloudy 10 - - - -
29/02:00am 11.8 W 19 26 1016.7 - 1.2 - Partly cloudy 10 - - - -
29/01:51am 11.9 W 20 30 1016.6 - 1.2 - Partly cloudy 10 - - - -
29/01:30am 12.2 W 18 26 1016.9 - 1.2 - Partly cloudy 10 - - - -
29/01:00am 12.3 W 20 28 1017.0 - 1.2 - Partly cloudy 10 - - - -
29/12:41am 12.3 W 16 26 1017.1 - 1.2 - Partly cloudy 10 - - - -
29/12:30am 12.4 W 19 28 1017.2 - 1.2 - Partly cloudy 10 - - - -
29/12:00am 12.4 W 18 26 1017.5 - 1.2 - Cloudy 10 - - - -
 
Date/Time
EST
Temp
°C
Wind Pressure Rain since
9am
mm
Weather Cloud Vis
km
Sea
Height
m
Swell
Dir  Spd
kts
Gust
kts
hPa Trend Height
m
Period
s
Dir
28/11:32pm 12.1 W 19 29 1017.7 - 1.2 - Partly cloudy 10 - - - -
28/11:30pm 12.1 W 20 29 1017.7 - 1.2 - Partly cloudy 10 - - - -
28/11:01pm 11.9 WNW 21 31 1017.9 - 1.2 - Partly cloudy 10 - - - -
28/11:00pm 11.9 WNW 20 28 1017.9 - 1.2 - Partly cloudy 10 - - - -
28/10:35pm 12.1 W 18 28 1018.2 - 1.2 - Partly cloudy 10 - - - -
28/10:30pm 12.0 W 19 28 1018.3 - 1.2 - Partly cloudy 10 - - - -
28/10:12pm 12.0 W 19 29 1018.4 - 1.2 - Partly cloudy 10 - - - -
28/10:00pm 11.8 WNW 19 26 1018.4 - 1.2 - Partly cloudy 10 - - - -
28/09:45pm 11.7 W 18 28 1018.6 - 1.2 - Partly cloudy 10 - - - -
28/09:30pm 11.7 W 17 22 1018.6 - 1.2 - Partly cloudy 10 - - - -
28/09:00pm 12.1 W 18 25 1018.8 - 1.2 Drizzle Cloudy 10 - - - -
28/08:30pm 11.2 WNW 21 31 1019.0 - 1.2 - Partly cloudy 10 - - - -
28/08:06pm 10.9 W 17 28 1019.1 - 1.0 - Partly cloudy 7 - - - -
28/08:00pm 11.2 W 15 20 1019.1 - 1.0 - Partly cloudy 10 - - - -
28/07:58pm 11.1 W 15 20 1019.1 - 1.0 - Partly cloudy 10 - - - -
28/07:41pm 11.2 W 17 27 1019.2 - 0.8 - Partly cloudy 10 - - - -
28/07:40pm 11.3 W 17 22 1019.2 - 0.8 - Partly cloudy 10 - - - -
28/07:33pm 11.1 W 17 27 1019.0 - 0.8 - Partly cloudy 10 - - - -
28/07:30pm 11.0 W 18 27 1019.0 - 0.8 - Partly cloudy 10 - - - -
28/07:09pm 11.2 W 18 24 1019.1 - 0.8 - Partly cloudy 9 - - - -
28/07:00pm 11.4 W 17 27 1018.9 - 0.8 - Partly cloudy 10 - - - -
28/06:50pm 11.2 W 16 26 1018.9 - 0.8 - Partly cloudy 10 - - - -
28/06:37pm 11.4 W 17 22 1018.8 - 0.8 - Partly cloudy 10 - - - -
28/06:30pm 11.2 W 18 25 1018.8 - 0.8 - Partly cloudy 8 - - - -
28/06:15pm 11.5 W 18 25 1018.6 - 0.6 - Partly cloudy 5 - - - -
28/06:00pm 11.6 W 17 23 1018.5 - 0.6 Rain Cloudy 10 - - - -
28/05:58pm 11.5 W 17 23 1018.5 - 0.6 - Partly cloudy 10 - - - -
28/05:48pm 11.4 WNW 20 27 1018.5 - 0.6 - Partly cloudy 5 - - - -
28/05:34pm 11.8 W 19 25 1018.7 - 0.6 - Partly cloudy 5 - - - -
28/05:30pm 12.0 W 18 25 1018.6 - 0.4 - Partly cloudy 10 - - - -
28/05:00pm 11.9 WNW 20 28 1018.8 - 0.4 - Partly cloudy 9 - - - -
28/04:35pm 11.8 W 21 33 1018.8 - 0.4 - Partly cloudy 10 - - - -
28/04:30pm 12.2 W 20 29 1018.7 - 0.4 - Partly cloudy 10 - - - -
28/04:00pm 11.8 W 20 30 1018.7 - 0.4 - Partly cloudy 9 - - - -
28/03:45pm 12.3 WNW 17 27 1018.8 - 0.4 - Partly cloudy 10 - - - -
28/03:30pm 12.2 W 18 24 1018.7 - 0.4 - Partly cloudy 10 - - - -
28/03:10pm 12.3 W 18 29 1018.7 - 0.4 - Partly cloudy 10 - - - -
28/03:00pm 12.0 W 18 22 1018.6 - 0.4 - Cloudy 10 - - - -
28/02:30pm 12.0 W 17 27 1018.5 - 0.4 - Partly cloudy 10 - - - -
28/02:00pm 11.7 W 18 31 1018.6 - 0.4 - Partly cloudy 10 - - - -
28/01:58pm 11.9 W 17 28 1018.6 - 0.4 - Partly cloudy 10 - - - -
28/01:41pm 11.4 W 20 29 1018.6 - 0.4 - Partly cloudy 10 - - - -
28/01:34pm 11.1 W 20 28 1018.6 - 0.4 - Partly cloudy 6 - - - -
28/01:30pm 11.2 W 21 31 1018.6 - 0.4 - Partly cloudy 5 - - - -
28/01:29pm 11.2 W 20 31 1018.6 - 0.4 - Partly cloudy 5 - - - -
28/01:24pm 11.7 W 20 31 1018.6 - 0.4 - Partly cloudy 9 - - - -
28/01:10pm 11.1 W 20 31 1018.7 - 0.4 - Partly cloudy 4 - - - -
28/01:04pm 11.6 W 20 31 1018.8 - 0.4 - Partly cloudy 5 - - - -
28/01:00pm 11.9 W 21 28 1018.8 - 0.4 - Partly cloudy 5 - - - -
28/12:40pm 11.5 W 23 33 1018.9 - 0.2 - Partly cloudy 5 - - - -
28/12:37pm 11.8 W 23 33 1019.0 - 0.2 - Partly cloudy 10 - - - -
28/12:35pm 12.0 W 21 30 1019.0 - 0.2 - Partly cloudy 10 - - - -
28/12:31pm 12.1 W 20 30 1019.0 - 0.2 - Partly cloudy 10 - - - -
28/12:30pm 11.8 W 21 30 1019.0 - 0.2 - Partly cloudy 8 - - - -
28/12:20pm 12.0 W 19 29 1019.0 - 0.2 - Partly cloudy 10 - - - -
28/12:14pm 12.2 W 19 28 1019.0 - 0.2 - Partly cloudy 10 - - - -
28/12:00pm 12.3 W 18 28 1019.1 - 0.2 Showers Cloudy 10 - - - -
28/11:33am 12.3 W 18 31 1019.4 - 0.2 - Partly cloudy 10 - - - -
28/11:30am 12.1 W 18 27 1019.4 - 0.0 - Partly cloudy 10 - - - -
28/11:10am 11.6 W 18 28 1019.5 - 0.0 - Partly cloudy 8 - - - -
28/11:00am 11.6 W 22 30 1019.6 - 0.0 - Partly cloudy 7 - - - -
28/10:30am 11.9 W 20 30 1019.4 - 0.0 - Partly cloudy 10 - - - -
28/10:00am 11.3 W 19 30 1019.2 - 0.0 - Partly cloudy 10 - - - -
28/09:51am 11.6 W 19 29 1019.1 - 0.0 - Partly cloudy 10 - - - -
28/09:30am 11.9 W 17 26 1019.2 - 0.0 - Partly cloudy 10 - - - -
28/09:00am 12.0 W 20 28 1019.1 - 1.8 - Cloudy 10 - - - -
28/08:34am 12.0 W 19 30 1018.9 - 1.8 - Partly cloudy 10 - - - -
28/08:30am 11.9 W 20 28 1018.9 - 1.8 - Cloudy 10 - - - -
28/08:00am 11.7 W 18 25 1018.7 - 1.8 - Partly cloudy 10 - - - -
28/07:30am 11.5 W 20 31 1018.5 - 1.8 - Cloudy 10 - - - -
28/07:00am 11.8 W 19 29 1018.2 - 1.8 - Cloudy 10 - - - -
28/06:46am 11.8 W 20 30 1018.1 - 1.8 - Cloudy 10 - - - -
28/06:30am 11.7 W 19 27 1017.9 - 1.8 - Partly cloudy 10 - - - -
28/06:26am 11.8 W 19 29 1017.9 - 1.8 - Cloudy 10 - - - -
28/06:00am 11.6 W 20 27 1017.8 - 1.8 - Cloudy 10 - - - -
28/05:30am 11.9 W 21 29 1017.6 - 1.8 - Partly cloudy 10 - - - -
28/05:15am 11.9 W 22 32 1017.4 - 1.8 - Partly cloudy 10 - - - -
28/05:00am 11.7 W 21 29 1017.2 - 1.8 - Partly cloudy 10 - - - -
28/04:30am 11.9 W 21 30 1017.3 - 1.8 - Partly cloudy 10 - - - -
28/04:03am 11.6 W 22 32 1017.2 - 1.8 - Partly cloudy 10 - - - -
28/04:00am 11.6 W 23 32 1017.2 - 1.8 - Partly cloudy 10 - - - -
28/03:55am 11.5 W 20 30 1017.2 - 1.8 - Partly cloudy 10 - - - -
28/03:43am 11.6 W 19 28 1017.3 - 1.8 - Partly cloudy 10 - - - -
28/03:30am 11.3 W 17 24 1017.3 - 1.8 - Partly cloudy 10 - - - -
28/03:26am 11.5 W 17 24 1017.3 - 1.8 - Partly cloudy 10 - - - -
28/03:00am 11.1 W 22 30 1017.5 - 1.6 Showers Cloudy 10 - - - -
28/02:50am 11.6 W 18 28 1017.5 - 1.6 - Partly cloudy 8 - - - -
28/02:49am 11.7 W 19 28 1017.5 - 1.6 - Partly cloudy 8 - - - -
28/02:38am 11.6 W 21 32 1017.5 - 1.6 - Partly cloudy 10 - - - -
28/02:30am 11.1 W 21 30 1017.5 - 1.6 - Partly cloudy 7 - - - -
28/02:18am 11.6 W 19 30 1017.5 - 1.6 - Partly cloudy 10 - - - -
28/02:00am 11.8 W 17 23 1017.6 - 1.6 - Partly cloudy 10 - - - -
28/01:30am 11.3 W 17 26 1017.4 - 1.6 - Partly cloudy 10 - - - -
28/01:15am 11.8 W 18 29 1017.4 - 1.6 - Partly cloudy 10 - - - -
28/01:00am 11.5 W 18 25 1017.4 - 1.6 - Partly cloudy 10 - - - -
28/12:30am 11.3 W 19 29 1017.4 - 1.6 - Partly cloudy 10 - - - -
28/12:21am 11.3 W 17 29 1017.4 - 1.6 - Partly cloudy 10 - - - -
28/12:00am 11.1 W 19 27 1017.4 - 1.4 Showers Cloudy 7 - - - -
 
Date/Time
EST
Temp
°C
Wind Pressure Rain since
9am
mm
Weather Cloud Vis
km
Sea
Height
m
Swell
Dir  Spd
kts
Gust
kts
hPa Trend Height
m
Period
s
Dir
27/11:30pm 11.3 W 18 31 1017.3 - 1.0 - Partly cloudy 10 - - - -
27/11:20pm 11.2 W 20 30 1017.3 - 1.0 - Partly cloudy 10 - - - -
27/11:00pm 11.5 W 18 27 1017.1 - 1.0 - Partly cloudy 10 - - - -
27/10:30pm 11.2 W 19 29 1017.3 - 1.0 - Partly cloudy 10 - - - -
27/10:28pm 11.4 W 18 29 1017.4 - 1.0 - Partly cloudy 10 - - - -
27/10:21pm 11.5 W 20 28 1017.4 - 1.0 - Partly cloudy 10 - - - -
27/10:08pm 10.9 WSW 22 32 1017.4 - 1.0 - Partly cloudy 5 - - - -
27/10:05pm 10.9 W 23 32 1017.4 - 1.0 - Partly cloudy 5 - - - -
27/10:00pm 11.6 W 23 31 1017.3 - 0.8 - Partly cloudy 10 - - - -
27/09:30pm 11.3 W 21 34 1017.1 - 0.8 - Partly cloudy 7 - - - -
27/09:06pm 12.0 W 20 30 1016.9 - 0.8 - Partly cloudy 10 - - - -
27/09:00pm 11.8 W 21 30 1016.8 - 0.8 - Cloudy 10 - - - -
27/08:42pm 11.7 W 19 29 1016.6 - 0.8 - Partly cloudy 10 - - - -
27/08:30pm 11.8 W 20 28 1016.7 - 0.8 - Partly cloudy 10 - - - -
27/08:00pm 11.5 W 21 36 1016.6 - 0.8 - Partly cloudy 10 - - - -
27/07:43pm 11.0 W 23 40 1016.4 - 0.8 - Partly cloudy 9 - - - -
27/07:37pm 11.0 W 21 40 1016.4 - 0.6 - Partly cloudy 7 - - - -
27/07:30pm 11.1 WSW 22 30 1016.4 - 0.6 - Partly cloudy 5 - - - -
27/07:28pm 11.2 WSW 23 31 1016.4 - 0.6 - Partly cloudy 5 - - - -
27/07:00pm 11.0 W 21 31 1016.1 - 0.4 - Partly cloudy 8 - - - -
27/06:45pm 11.0 W 20 30 1016.0 - 0.4 - Partly cloudy 10 - - - -
27/06:40pm 10.9 W 21 30 1016.0 - 0.4 - Partly cloudy 10 - - - -
27/06:32pm 10.8 W 23 33 1016.0 - 0.4 - Partly cloudy 8 - - - -
27/06:30pm 10.8 W 24 33 1016.0 - 0.4 - Partly cloudy 5 - - - -
27/06:25pm 10.9 W 23 33 1015.9 - 0.4 - Partly cloudy 5 - - - -
27/06:01pm 10.8 W 22 33 1015.4 - 0.4 - Partly cloudy 10 - - - -
27/06:00pm 10.7 W 22 30 1015.4 - 0.4 Showers Partly cloudy 10 - - - -
27/05:34pm 11.2 W 23 33 1015.2 - 0.4 - Partly cloudy 10 - - - -
27/05:30pm 11.2 W 22 30 1015.1 - 0.4 - Partly cloudy 10 - - - -
27/05:00pm 11.0 W 21 31 1014.8 - 0.4 - Partly cloudy 10 - - - -
27/04:41pm 10.8 W 21 31 1014.6 - 0.4 - Partly cloudy 10 - - - -
27/04:30pm 10.8 W 22 31 1014.5 - 0.4 - Partly cloudy 10 - - - -
27/04:06pm 10.5 W 21 32 1014.3 - 0.4 - Partly cloudy 10 - - - -
27/04:00pm 10.4 W 21 29 1014.3 - 0.4 - Partly cloudy 10 - - - -
27/03:40pm 10.3 W 20 31 1014.5 - 0.4 - Partly cloudy 10 - - - -
27/03:30pm 10.2 W 22 30 1014.4 - 0.4 - Partly cloudy 10 - - - -
27/03:00pm 9.7 W 20 28 1014.4 - 0.2 Showers Cloudy 10 - - - -
27/02:33pm 9.2 W 21 31 1014.2 - 0.2 - Partly cloudy 8 - - - -
27/02:30pm 9.5 W 22 31 1014.2 - 0.2 - Partly cloudy 9 - - - -
27/02:21pm 10.0 W 21 31 1014.0 - 0.2 - Partly cloudy 10 - - - -
27/02:00pm 10.3 W 20 27 1013.9 - 0.2 - Partly cloudy 10 - - - -
27/01:39pm 9.5 W 20 30 1013.8 - 0.2 - Partly cloudy 10 - - - -
27/01:30pm 9.9 W 19 28 1013.6 - 0.2 - Partly cloudy 10 - - - -
27/01:19pm 9.4 W 18 28 1013.7 - 0.2 - Partly cloudy 10 - - - -
27/01:00pm 9.9 W 18 26 1013.8 - 0.2 - Partly cloudy 10 - - - -
27/12:42pm 10.6 W 19 30 1013.8 - 0.2 - Partly cloudy 10 - - - -
27/12:30pm 9.4 WSW 17 23 1013.6 - 0.2 - Partly cloudy 10 - - - -
27/12:23pm 9.5 WSW 17 27 1013.6 - 0.2 - Partly cloudy 10 - - - -
27/12:00pm 9.8 W 18 25 1013.6 - 0.2 Rain Mostly cloudy 10 - - - -
27/11:30am 8.7 W 19 30 1014.0 - 0.2 - Partly cloudy 8 - - - -
27/11:00am 9.1 WSW 16 28 1013.6 - 0.0 - Partly cloudy 10 - - - -
27/10:46am 8.9 WSW 18 28 1013.3 - 0.0 - Partly cloudy 10 - - - -
27/10:30am 10.2 SW 15 24 1012.9 - 0.0 - Partly cloudy 10 - - - -
27/10:09am 9.4 SW 15 25 1012.5 - 0.0 - Partly cloudy 10 - - - -
27/10:00am 9.2 SW 11 16 1012.4 - 0.0 - Partly cloudy 10 - - - -
27/09:30am 8.7 SW 16 31 1012.3 - 0.0 - Partly cloudy 10 - - - -
27/09:00am 9.5 SW 15 22 1011.7 - 11.6 - Partly cloudy 10 - - - -
27/08:47am 9.3 SW 18 29 1011.3 - 11.6 - Partly cloudy 10 - - - -
27/08:30am 9.0 SW 16 23 1011.1 - 11.6 - Partly cloudy 10 - - - -
27/08:00am 8.9 SW 17 23 1009.9 - 11.6 - Partly cloudy 10 - - - -
27/07:30am 8.7 SW 17 22 1009.3 - 11.6 - Partly cloudy 10 - - - -
27/07:00am 8.2 SW 18 25 1008.6 - 11.6 - Partly cloudy 10 - - - -
27/06:30am 7.7 SSW 21 31 1007.9 - 11.6 - Partly cloudy 10 - - - -
27/06:17am 8.7 SSW 17 27 1007.5 - 11.6 - Partly cloudy 10 - - - -
27/06:00am 8.2 SSW 21 28 1007.1 - 11.6 Rain Mostly cloudy 10 - - - -
27/05:30am 8.7 SSW 20 27 1006.3 - 11.6 - Partly cloudy 10 - - - -
27/05:00am 8.8 SSW 22 28 1005.6 - 11.6 - Partly cloudy 10 - - - -
27/04:30am 9.1 SSW 23 30 1004.9 - 11.6 - Partly cloudy 10 - - - -
27/04:00am 9.2 SSW 21 30 1004.0 - 11.6 - Partly cloudy 10 - - - -
27/03:30am 9.3 SW 23 29 1003.2 - 11.6 - Partly cloudy 10 - - - -
27/03:02am 10.6 SW 17 27 1002.7 - 11.4 - Partly cloudy 10 - - - -
27/03:00am 10.4 WSW 18 24 1002.7 - 11.4 Rain Mostly cloudy 10 - - - -
27/02:34am 10.4 WSW 16 26 1002.2 - 11.4 - Partly cloudy 10 - - - -
27/02:30am 10.4 WSW 16 21 1002.1 - 11.4 - Partly cloudy 10 - - - -
27/02:25am 10.2 WSW 14 21 1002.0 - 11.4 - Partly cloudy 10 - - - -
27/02:06am 10.1 WNW 17 23 1002.0 - 11.0 - Partly cloudy 5 - - - -
27/02:00am 10.1 WNW 18 23 1001.5 - 9.2 - Partly cloudy 10 - - - -
27/01:53am 10.2 WNW 18 24 1001.5 - 9.2 - Partly cloudy 10 - - - -
27/01:49am 10.3 WNW 19 26 1001.6 - 9.2 - Partly cloudy 10 - - - -
27/01:42am 10.3 WNW 21 29 1001.5 - 9.2 - Partly cloudy 7 - - - -
27/01:30am 10.3 NW 23 28 1001.0 - 9.0 - Partly cloudy 2 - - - -
27/01:12am 10.5 NW 25 36 1001.0 - 6.4 - Partly cloudy 3 - - - -
27/01:08am 10.5 NW 25 32 1001.1 - 6.0 - Partly cloudy 5 - - - -
27/01:00am 10.6 NW 27 34 1001.0 - 5.4 - Partly cloudy 10 - - - -
27/12:30am 10.5 NW 26 37 1000.7 - 5.2 - Partly cloudy 8 - - - -
27/12:15am 10.6 NW 27 37 1000.7 - 5.2 - Partly cloudy 7 - - - -
27/12:00am 10.6 NW 29 35 1000.7 - 5.2 Showers Cloudy 10 - - - -
 
Date/Time
EST
Temp
°C
Wind Pressure Rain since
9am
mm
Weather Cloud Vis
km
Sea
Height
m
Swell
Dir  Spd
kts
Gust
kts
hPa Trend Height
m
Period
s
Dir
26/11:56pm 10.7 NW 29 36 1000.7 - 5.2 - Partly cloudy 10 - - - -
26/11:35pm 10.3 NW 29 40 1000.8 - 4.6 - Partly cloudy 5 - - - -
26/11:30pm 10.4 NW 29 40 1000.9 - 4.6 - Partly cloudy 7 - - - -
26/11:16pm 10.3 NW 27 37 1000.9 - 4.4 - Partly cloudy 7 - - - -
26/11:00pm 10.3 NW 29 36 1001.1 - 4.4 - Partly cloudy 10 - - - -
26/10:41pm 9.9 NNW 29 39 1001.0 - 4.2 - Cloudy 7 - - - -
26/10:30pm 10.2 NNW 29 38 1001.0 - 4.2 - Partly cloudy 10 - - - -
26/10:13pm 10.4 NNW 30 41 1000.9 - 4.2 - Partly cloudy 10 - - - -
26/10:00pm 10.5 NNW 31 40 1001.1 - 4.2 - Partly cloudy 10 - - - -
26/09:39pm 10.2 NNW 30 43 1001.0 - 4.2 - Partly cloudy 10 - - - -
26/09:30pm 10.2 NNW 32 40 1001.0 - 4.2 - Partly cloudy 10 - - - -
26/09:08pm 10.2 NNW 30 40 1001.3 - 4.2 - Partly cloudy 10 - - - -
26/09:00pm 10.2 NNW 32 40 1001.3 - 4.2 Drizzle Cloudy 10 - - - -
26/08:30pm 9.8 NNW 29 40 1001.5 - 4.2 - Partly cloudy 9 - - - -
26/08:13pm 10.3 NNW 30 40 1001.5 - 4.2 - Partly cloudy 10 - - - -
26/08:00pm 10.3 NNW 31 40 1001.5 - 4.2 - Partly cloudy 10 - - - -
26/07:32pm 10.2 NNW 29 40 1001.8 - 4.2 - Partly cloudy 10 - - - -
26/07:30pm 10.1 NNW 28 37 1001.8 - 4.2 - Partly cloudy 10 - - - -
26/07:10pm 9.7 NNW 29 39 1002.0 - 4.2 - Partly cloudy 10 - - - -
26/07:00pm 9.9 NNW 27 35 1002.0 - 4.2 - Partly cloudy 10 - - - -
26/06:48pm 9.7 NNW 27 37 1002.1 - 4.2 - Partly cloudy 9 - - - -
26/06:30pm 10.2 NW 29 36 1002.3 - 4.0 - Partly cloudy 10 - - - -
26/06:09pm 9.9 NW 28 38 1002.4 - 4.0 - Partly cloudy 10 - - - -
26/06:00pm 9.5 NW 27 35 1002.5 - 3.8 Showers Cloudy 8 - - - -
26/05:30pm 8.8 NNW 27 34 1003.0 - 3.4 - Partly cloudy 9 - - - -
26/05:26pm 8.7 NNW 27 34 1003.0 - 3.4 - Partly cloudy 8 - - - -
26/05:13pm 8.6 NNW 24 30 1003.2 - 3.2 - Partly cloudy 10 - - - -
26/05:03pm 8.4 NW 21 31 1003.2 - 3.2 - Partly cloudy 5 - - - -
26/05:00pm 8.4 NW 20 26 1003.3 - 3.0 - Partly cloudy 5 - - - -
26/04:58pm 8.5 NW 20 26 1003.4 - 3.0 - Partly cloudy 5 - - - -
26/04:36pm 8.4 NNW 25 32 1003.5 - 1.2 - Partly cloudy 5 - - - -
26/04:30pm 9.3 NNW 24 31 1003.4 - 0.6 - Partly cloudy 10 - - - -
26/04:00pm 9.4 NNW 23 30 1003.7 - 0.6 - Partly cloudy 10 - - - -
26/03:30pm 8.8 NNW 19 26 1004.2 - 0.6 - Partly cloudy 10 - - - -
26/03:00pm 8.6 NNW 21 27 1004.5 - 0.6 Showers Cloudy 10 - - - -
26/02:37pm 8.3 NW 21 31 1005.1 - 0.4 - Partly cloudy 10 - - - -
26/02:30pm 8.4 NNW 22 30 1005.1 - 0.4 - Partly cloudy 10 - - - -
26/02:14pm 8.3 NW 20 30 1005.3 - 0.4 - Partly cloudy 10 - - - -
26/02:00pm 8.8 NW 19 25 1005.5 - 0.4 - Partly cloudy 10 - - - -
26/01:36pm 7.4 WNW 19 27 1006.0 - 0.4 - Partly cloudy 8 - - - -
26/01:30pm 7.5 WNW 23 33 1006.3 - 0.0 - Partly cloudy 10 - - - -
26/01:14pm 8.5 WNW 14 32 1006.1 - 0.0 - Partly cloudy 10 - - - -
26/01:04pm 8.8 W 15 25 1005.9 - 0.0 - Partly cloudy 10 - - - -
26/01:00pm 8.7 W 17 25 1006.0 - 0.0 - Partly cloudy 10 - - - -
26/12:51pm 8.7 WNW 22 28 1006.2 - 0.0 - Partly cloudy 10 - - - -
26/12:30pm 10.6 NW 23 27 1006.2 - 0.0 - Partly cloudy 10 - - - -
26/12:17pm 10.3 WNW 16 27 1006.4 - 0.0 - Partly cloudy 10 - - - -
26/12:00pm 10.6 WNW 19 25 1006.8 - 0.0 - Cloudy 10 - - - -
26/11:30am 9.6 W 19 27 1007.2 - 0.0 - Partly cloudy 10 - - - -
26/11:00am 10.9 WNW 17 23 1007.2 - 0.0 - Partly cloudy 10 - - - -
26/10:30am 10.8 WNW 19 27 1007.1 - 0.0 - Partly cloudy 10 - - - -
26/10:00am 10.2 W 17 24 1007.0 - 0.0 - Partly cloudy 10 - - - -
26/09:30am 9.5 W 16 23 1006.7 - 0.0 - Partly cloudy 10 - - - -
26/09:00am 9.2 W 17 23 1006.6 - 14.4 - Partly cloudy 10 - - - -
26/08:30am 9.3 W 19 26 1006.5 - 14.4 - Partly cloudy 10 - - - -
26/08:00am 9.0 WSW 19 26 1006.4 - 14.4 - Partly cloudy 10 - - - -
26/07:31am 8.7 W 21 31 1006.3 - 14.4 - Partly cloudy 10 - - - -
26/07:30am 8.7 W 21 30 1006.3 - 14.4 - Partly cloudy 10 - - - -
26/07:01am 8.5 W 21 31 1006.1 - 14.4 - Partly cloudy 10 - - - -
26/07:00am 8.5 W 21 30 1006.1 - 14.4 - Partly cloudy 10 - - - -
26/06:30am 8.5 W 23 34 1005.8 - 14.4 - Partly cloudy 10 - - - -
26/06:00am 8.6 WSW 24 36 1005.4 - 14.4 - Mostly clear 10 - - - -
26/05:31am 8.3 W 23 33 1005.0 - 14.4 - Partly cloudy 10 - - - -
26/05:30am 8.4 WSW 24 33 1005.0 - 14.4 - Partly cloudy 10 - - - -
26/05:00am 7.7 W 22 36 1004.6 - 14.4 - Partly cloudy 10 - - - -
26/04:37am 8.4 WSW 26 48 1004.5 - 14.2 - Partly cloudy 10 - - - -
26/04:30am 8.8 W 23 33 1004.1 - 14.2 - Partly cloudy 10 - - - -

Other Formats:

Comma delimited format used in spreadsheet applications
http://www.bom.gov.au/fwo/IDT60701/IDT60701.94850.axf

JavaScript Object Notation format (JSON) in row-major order
http://www.bom.gov.au/fwo/IDT60701/IDT60701.94850.json